Time;durP1;ratioP1;P1;durP2;ratioP2;P2;SDS_P1;SDS_P2;PMS_P1;PMS_P2;Temp;Humidity;BMP_temperature;BMP_pressure;BME280_temperature;BME280_humidity;BME280_pressure;Samples;Min_cycle;Max_cycle;Signal;HPM_P1;HPM_P2
2021/07/05 00:00:26;;;;;;;2.78;1.92;;;14.70;99.90;;;15.60;94.26;97609.66;5178070;28;20234;-58
2021/07/05 00:02:59;;;;;;;2.05;1.88;;;14.60;99.90;;;15.57;94.52;97609.56;5182499;28;20214;-57
2021/07/05 00:05:32;;;;;;;2.20;2.08;;;14.60;99.90;;;15.57;94.58;97622.44;5184331;28;20289;-56
2021/07/05 00:08:07;;;;;;;2.30;2.10;;;14.60;99.90;;;15.55;96.59;97614.66;5183722;28;20294;-56
2021/07/05 00:10:40;;;;;;;2.20;2.08;;;14.60;99.90;;;15.60;96.20;97622.53;5182823;28;20194;-57
2021/07/05 00:13:14;;;;;;;2.03;1.92;;;14.70;99.90;;;15.51;96.10;97627.41;5183605;28;20230;-57
2021/07/05 00:15:47;;;;;;;2.40;2.20;;;14.60;99.90;;;15.52;95.99;97621.41;5183722;28;20631;-58
2021/07/05 00:18:20;;;;;;;2.22;2.03;;;14.60;99.90;;;15.57;96.40;97630.19;5184525;28;20198;-59
2021/07/05 00:20:53;;;;;;;2.30;2.20;;;14.60;99.90;;;15.57;96.68;97624.13;5180687;28;20209;-59
2021/07/05 00:23:28;;;;;;;3.17;2.05;;;14.70;99.90;;;15.65;96.88;97622.69;5178684;28;20214;-57
2021/07/05 00:26:01;;;;;;;3.03;1.90;;;14.70;99.90;;;15.59;96.56;97610.47;5183795;28;20565;-57
2021/07/05 00:28:34;;;;;;;2.03;1.90;;;14.60;99.90;;;15.66;95.30;97604.72;5180622;28;20265;-57
2021/07/05 00:31:07;;;;;;;3.53;1.70;;;14.60;99.90;;;15.66;95.60;97604.72;5181841;28;20302;-60
2021/07/05 00:33:40;;;;;;;1.70;1.60;;;14.70;99.90;;;15.63;96.17;97599.47;5182244;28;20222;-57
2021/07/05 00:36:14;;;;;;;2.13;2.03;;;14.70;99.90;;;15.67;95.55;97614.19;5179920;28;20202;-56
2021/07/05 00:38:48;;;;;;;2.20;1.90;;;14.70;99.90;;;15.58;95.27;97610.44;5184655;28;20206;-54
2021/07/05 00:41:22;;;;;;;5.80;2.00;;;14.60;99.90;;;15.49;95.05;97605.84;5184358;28;20198;-56
2021/07/05 00:43:56;;;;;;;1.92;1.83;;;14.50;99.90;;;15.47;95.04;97604.91;5179053;28;20559;-58
2021/07/05 00:46:29;;;;;;;1.85;1.75;;;14.50;99.90;;;15.45;95.02;97598.81;5183755;28;20206;-55
2021/07/05 00:49:03;;;;;;;2.05;1.95;;;14.40;99.90;;;15.51;94.49;97601.63;5182016;28;20206;-59
2021/07/05 00:51:36;;;;;;;1.92;1.77;;;14.50;99.90;;;15.55;94.69;97600.91;5183958;28;20223;-57
2021/07/05 00:54:10;;;;;;;2.05;1.95;;;14.60;99.90;;;15.61;95.07;97601.09;5181924;28;20222;-60
2021/07/05 00:56:44;;;;;;;2.22;2.03;;;14.60;99.90;;;15.62;95.42;97605.41;5183770;28;20580;-58
2021/07/05 00:59:17;;;;;;;2.00;1.90;;;14.60;99.90;;;15.70;95.46;97598.84;5182697;28;20191;-58
2021/07/05 01:01:50;;;;;;;2.30;2.20;;;14.70;99.90;;;15.69;95.10;97591.97;5183379;28;20600;-57
2021/07/05 01:04:23;;;;;;;2.20;1.83;;;14.70;99.90;;;15.60;95.12;97594.22;5182234;28;20203;-55
2021/07/05 01:06:56;;;;;;;2.70;1.70;;;14.60;99.90;;;15.55;94.91;97596.63;5183252;28;20655;-58
2021/07/05 01:09:31;;;;;;;2.25;2.05;;;14.60;99.90;;;15.57;95.86;97590.63;5180440;28;20203;-58
2021/07/05 01:12:04;;;;;;;2.05;1.88;;;14.70;99.90;;;15.66;95.60;97599.56;5181572;28;20748;-57
2021/07/05 01:14:38;;;;;;;3.40;2.00;;;14.70;99.90;;;15.68;95.39;97597.03;5181215;28;20223;-57
2021/07/05 01:17:13;;;;;;;2.30;2.20;;;14.70;99.90;;;15.67;96.40;97600.44;5181027;28;20199;-57
2021/07/05 01:19:51;;;;;;;4.70;3.20;;;14.80;99.90;;;15.76;95.20;97600.75;5178673;28;20202;-58
2021/07/05 01:22:25;;;;;;;4.13;3.22;;;14.70;99.90;;;15.79;94.33;97598.28;5178106;28;20241;-58
2021/07/05 01:25:00;;;;;;;3.30;3.00;;;14.70;99.90;;;15.72;93.97;97586.91;5181659;28;20646;-56
2021/07/05 01:27:33;;;;;;;3.00;2.80;;;14.70;99.90;;;15.60;94.52;97571.03;5184339;28;20198;-58
2021/07/05 01:30:09;;;;;;;3.10;2.47;;;14.60;99.90;;;15.58;95.17;97571.78;5181986;28;20203;-58
2021/07/05 01:32:42;;;;;;;2.70;2.50;;;14.60;99.90;;;15.62;94.67;97573.63;5183132;28;20226;-59
2021/07/05 01:35:17;;;;;;;2.60;2.40;;;14.60;99.90;;;15.66;94.58;97567.78;5181672;28;20273;-59
2021/07/05 01:37:52;;;;;;;2.70;2.50;;;14.60;99.90;;;15.60;95.02;97571.03;5184018;28;20198;-56
2021/07/05 01:40:26;;;;;;;2.15;2.05;;;14.60;99.90;;;15.64;94.81;97567.69;5174746;28;20289;-56
2021/07/05 01:43:00;;;;;;;2.42;2.20;;;14.60;99.90;;;15.67;96.04;97562.66;5180357;28;20232;-57
2021/07/05 01:45:35;;;;;;;2.20;2.10;;;14.70;99.90;;;15.75;95.73;97557.78;5177563;28;20194;-59
2021/07/05 01:48:08;;;;;;;2.00;1.90;;;14.70;99.90;;;15.77;95.16;97558.72;5182465;28;20202;-57
2021/07/05 01:50:41;;;;;;;2.78;2.58;;;14.80;99.90;;;15.74;95.08;97559.50;5183964;28;20195;-58
2021/07/05 01:53:18;;;;;;;3.35;2.13;;;14.80;99.90;;;15.80;94.97;97557.94;5181193;28;20590;-58
2021/07/05 01:55:53;;;;;;;3.47;2.40;;;14.80;99.90;;;15.77;94.90;97559.59;5183477;28;20218;-57
2021/07/05 01:58:27;;;;;;;2.50;1.98;;;14.70;99.90;;;15.80;94.49;97553.66;5183281;28;20209;-58
2021/07/05 02:01:00;;;;;;;3.83;2.00;;;14.70;99.90;;;15.86;94.27;97547.81;5181792;28;20199;-57
2021/07/05 02:03:34;;;;;;;1.83;1.73;;;14.80;99.90;;;15.91;93.38;97553.97;5181994;28;20218;-58
2021/07/05 02:06:07;;;;;;;2.70;2.20;;;14.70;99.90;;;15.77;93.59;97554.44;5181657;28;20235;-57
2021/07/05 02:08:41;;;;;;;2.58;1.92;;;14.70;99.90;;;15.73;93.69;97551.69;5182603;28;20305;-58
2021/07/05 02:11:14;;;;;;;2.40;2.20;;;14.70;99.90;;;15.69;94.26;97555.88;5179405;28;20197;-58
2021/07/05 02:13:47;;;;;;;2.28;2.00;;;14.70;99.90;;;15.67;94.58;97552.34;5178217;28;20199;-58
2021/07/05 02:16:21;;;;;;;2.20;2.00;;;14.70;99.90;;;15.69;95.12;97558.47;5185655;28;20301;-59
2021/07/05 02:18:54;;;;;;;2.28;2.17;;;14.70;99.90;;;15.66;95.04;97560.91;5185241;28;20199;-58
2021/07/05 02:21:27;;;;;;;2.83;2.10;;;14.60;99.90;;;15.67;94.99;97547.19;5182812;28;20651;-59
2021/07/05 02:24:01;;;;;;;2.20;2.10;;;14.70;99.90;;;15.71;95.04;97541.34;5185227;28;20217;-60
2021/07/05 02:26:35;;;;;;;2.58;2.00;;;14.70;99.90;;;15.72;94.78;97543.09;5186060;28;20236;-59
2021/07/05 02:29:08;;;;;;;2.33;2.22;;;14.70;99.90;;;15.74;95.07;97522.53;5186190;28;20199;-58
2021/07/05 02:31:41;;;;;;;1.90;1.80;;;14.70;99.90;;;15.74;94.90;97513.09;5185070;28;20228;-58
2021/07/05 02:34:14;;;;;;;2.33;2.00;;;14.70;99.90;;;15.81;94.13;97529.63;5175935;28;20263;-58
2021/07/05 02:36:47;;;;;;;1.73;1.63;;;14.70;99.90;;;15.85;95.33;97535.75;5185839;28;20291;-58
2021/07/05 02:39:21;;;;;;;2.17;2.08;;;14.80;99.90;;;15.79;94.71;97540.69;5175448;28;20194;-58
2021/07/05 02:41:54;;;;;;;2.35;1.80;;;14.70;99.90;;;15.82;94.20;97545.94;5181578;28;20226;-59
2021/07/05 02:44:28;;;;;;;2.22;1.90;;;14.70;99.90;;;15.83;93.45;97534.84;5180263;28;20201;-55
2021/07/05 02:47:01;;;;;;;2.08;1.98;;;14.70;99.90;;;15.79;94.13;97538.13;5185212;28;20199;-57
2021/07/05 02:49:34;;;;;;;2.53;1.70;;;14.70;99.90;;;15.68;93.63;97536.09;5180715;28;20205;-58
2021/07/05 02:52:07;;;;;;;3.45;1.70;;;14.60;99.90;;;15.62;93.92;97538.44;5184644;28;20218;-58
2021/07/05 02:54:43;;;;;;;2.45;1.80;;;14.50;99.90;;;15.57;93.58;97539.09;5181736;28;20221;-58
2021/07/05 02:57:29;;;;;;;2.00;1.90;;;14.50;99.90;;;15.56;93.55;97540.81;5185166;28;20209;-57
2021/07/05 03:00:12;;;;;;;2.08;1.98;;;14.50;99.90;;;15.60;93.85;97540.09;5175801;28;20293;-55
2021/07/05 03:02:46;;;;;;;2.45;1.98;;;14.50;99.90;;;15.60;94.29;97550.41;5184471;28;20232;-59
2021/07/05 03:05:23;;;;;;;1.85;1.75;;;14.60;99.90;;;15.59;94.86;97548.63;5186712;28;20202;-57
2021/07/05 03:07:57;;;;;;;2.20;2.00;;;14.50;99.90;;;15.49;94.63;97547.47;5186677;28;20199;-58
2021/07/05 03:10:35;;;;;;;2.25;2.10;;;14.50;99.90;;;15.47;94.94;97548.25;5186698;28;20284;-55
2021/07/05 03:13:10;;;;;;;1.95;1.85;;;14.50;99.90;;;15.46;94.19;97541.34;5179507;28;20756;-58
2021/07/05 03:15:44;;;;;;;3.08;2.10;;;14.40;99.90;;;15.40;95.35;97536.00;5177475;28;20230;-59
2021/07/05 03:18:17;;;;;;;2.25;2.15;;;14.40;99.90;;;15.35;95.25;97537.56;5186037;28;20201;-58
2021/07/05 03:20:52;;;;;;;2.83;2.00;;;14.40;99.90;;;15.36;94.79;97545.31;5183870;28;20209;-58
2021/07/05 03:23:26;;;;;;;2.05;1.90;;;14.40;99.90;;;15.38;94.78;97542.81;5182569;28;20225;-57
2021/07/05 03:26:01;;;;;;;1.80;1.70;;;14.40;99.90;;;15.36;94.92;97550.47;5185122;28;20221;-55
2021/07/05 03:28:34;;;;;;;2.83;1.80;;;14.40;99.90;;;15.38;94.49;97547.94;5180506;28;20593;-58
2021/07/05 03:31:07;;;;;;;2.10;1.85;;;14.40;99.90;;;15.40;94.90;97551.47;5184100;28;20230;-55
2021/07/05 03:33:41;;;;;;;2.35;2.15;;;14.40;99.90;;;15.39;95.34;97544.53;5184735;28;20199;-58
2021/07/05 03:36:14;;;;;;;1.80;1.70;;;14.50;99.90;;;15.37;95.58;97546.22;5184767;28;20223;-56
2021/07/05 03:38:47;;;;;;;2.47;2.38;;;14.40;99.90;;;15.36;95.37;97549.59;5186145;28;20199;-58
2021/07/05 03:41:22;;;;;;;2.10;2.00;;;14.40;99.90;;;15.39;95.03;97549.69;5185478;28;20202;-57
2021/07/05 03:43:55;;;;;;;2.00;1.90;;;14.40;99.90;;;15.50;94.87;97538.03;5185344;28;20212;-58
2021/07/05 03:46:28;;;;;;;1.65;1.55;;;14.50;99.90;;;15.51;94.53;97548.41;5184261;28;20195;-57
2021/07/05 03:49:01;;;;;;;2.28;2.08;;;14.50;99.90;;;15.52;94.77;97555.31;5183941;28;20206;-58
2021/07/05 03:51:34;;;;;;;2.10;2.00;;;14.60;99.90;;;15.55;95.34;97559.69;5184944;28;20222;-58
2021/07/05 03:54:07;;;;;;;2.10;1.95;;;14.60;99.90;;;15.53;96.34;97562.19;5182164;28;20199;-59
2021/07/05 03:56:42;;;;;;;2.55;2.35;;;14.60;99.90;;;15.66;94.86;97554.88;5185822;28;20222;-58
2021/07/05 03:59:15;;;;;;;3.17;2.38;;;14.60;99.90;;;15.65;95.37;97548.88;5182127;28;20206;-57
2021/07/05 04:01:48;;;;;;;2.03;1.92;;;14.60;99.90;;;15.65;94.97;97543.72;5181185;28;20602;-59
2021/07/05 04:04:26;;;;;;;2.50;2.30;;;14.70;99.90;;;15.50;93.73;97544.06;5177957;28;20248;-58
2021/07/05 04:06:59;;;;;;;2.13;1.88;;;14.60;99.90;;;15.60;93.73;97531.50;5184937;28;20290;-59
2021/07/05 04:09:32;;;;;;;2.35;2.15;;;14.50;99.90;;;15.53;93.00;97523.56;5182777;28;20203;-59
2021/07/05 04:12:08;;;;;;;1.85;1.75;;;14.50;99.90;;;15.49;92.62;97526.88;5181312;28;20606;-58
2021/07/05 04:14:42;;;;;;;4.00;2.30;;;14.50;99.90;;;15.45;93.43;97519.88;5183012;28;20232;-59
2021/07/05 04:17:15;;;;;;;2.40;2.20;;;14.50;99.90;;;15.53;94.00;97520.09;5182975;28;20227;-59
2021/07/05 04:19:48;;;;;;;3.08;2.08;;;14.60;99.90;;;15.58;94.39;97525.41;5182453;28;20202;-57
2021/07/05 04:22:22;;;;;;;2.08;1.98;;;14.70;99.90;;;15.57;93.76;97536.53;5180239;28;20594;-58
2021/07/05 04:24:55;;;;;;;2.25;2.03;;;14.60;99.90;;;15.60;93.66;97531.50;5183077;28;20592;-58
2021/07/05 04:27:29;;;;;;;2.47;2.25;;;14.70;99.90;;;15.62;93.53;97529.81;5183700;28;20198;-59
2021/07/05 04:30:03;;;;;;;2.28;2.08;;;14.70;99.90;;;15.57;93.88;97529.69;5182444;28;20204;-55
2021/07/05 04:32:37;;;;;;;2.30;2.20;;;14.70;99.90;;;15.65;93.43;97530.81;5179260;28;20233;-59
2021/07/05 04:35:16;;;;;;;2.00;1.90;;;14.80;99.90;;;15.80;93.31;97524.44;5183095;28;20202;-57
2021/07/05 04:37:50;;;;;;;2.15;2.05;;;14.80;99.90;;;15.71;93.07;97536.19;5175993;28;20198;-58
2021/07/05 04:40:26;;;;;;;2.05;1.92;;;14.80;99.90;;;15.77;93.41;97536.38;5179909;28;20681;-57
2021/07/05 04:43:01;;;;;;;2.40;1.98;;;14.90;99.90;;;15.83;93.20;97540.84;5182585;28;20222;-58
2021/07/05 04:45:37;;;;;;;2.20;2.05;;;15.00;99.90;;;15.93;93.73;97532.56;5172975;28;20202;-56
2021/07/05 04:48:13;;;;;;;3.33;2.30;;;15.10;99.90;;;15.95;94.10;97542.94;5182106;28;20199;-58
2021/07/05 04:50:46;;;;;;;2.60;2.40;;;15.10;99.90;;;16.10;93.05;97538.25;5180880;28;20654;-59
2021/07/05 04:53:19;;;;;;;2.58;2.40;;;15.20;99.90;;;16.15;92.47;97541.84;5176691;28;20214;-58
2021/07/05 04:55:53;;;;;;;2.45;2.08;;;15.20;99.90;;;16.13;92.27;97543.47;5174657;28;20223;-57
2021/07/05 04:58:28;;;;;;;2.22;2.05;;;15.20;99.90;;;16.14;92.67;97534.94;5178200;28;20224;-59
2021/07/05 05:01:01;;;;;;;4.15;3.75;;;15.30;99.90;;;16.25;92.72;97529.22;5178856;28;20202;-57
2021/07/05 05:03:34;;;;;;;3.92;2.33;;;15.40;99.90;;;16.30;93.40;97525.94;5175565;28;20218;-59
2021/07/05 05:06:07;;;;;;;3.63;2.40;;;15.50;99.90;;;16.30;92.82;97523.34;5175839;28;20195;-59
2021/07/05 05:08:40;;;;;;;2.85;2.65;;;15.50;99.90;;;16.41;92.42;97523.69;5176688;28;20629;-59
2021/07/05 05:11:13;;;;;;;2.60;2.40;;;15.50;99.90;;;16.46;91.13;97522.09;5174428;28;20206;-55
2021/07/05 05:13:49;;;;;;;2.35;2.15;;;15.50;99.90;;;16.34;91.70;97526.88;5179676;28;20203;-58
2021/07/05 05:16:22;;;;;;;2.40;2.30;;;15.50;99.90;;;16.40;91.40;97516.78;5178409;28;20230;-59
2021/07/05 05:18:55;;;;;;;2.60;2.40;;;15.50;99.90;;;16.41;91.88;97526.25;5173678;28;20257;-61
2021/07/05 05:21:29;;;;;;;2.30;2.10;;;15.50;99.90;;;16.52;91.71;97530.00;5176235;28;20199;-59
2021/07/05 05:24:03;;;;;;;2.40;2.20;;;15.60;99.90;;;16.54;91.59;97519.72;5174677;28;20553;-59
2021/07/05 05:26:36;;;;;;;2.85;2.60;;;15.60;99.90;;;16.52;91.49;97516.25;5178552;28;20582;-60
2021/07/05 05:29:10;;;;;;;2.83;2.67;;;15.50;99.90;;;16.56;91.78;97516.34;5176464;28;20586;-60
2021/07/05 05:31:43;;;;;;;3.13;2.40;;;15.60;99.90;;;16.57;92.87;97523.28;5184585;28;20213;-58
2021/07/05 05:34:17;;;;;;;2.33;2.13;;;15.70;99.90;;;16.56;93.35;97533.53;5175475;28;20214;-58
2021/07/05 05:36:50;;;;;;;2.55;2.35;;;15.80;99.90;;;16.66;92.07;97528.69;5180625;28;20233;-58
2021/07/05 05:39:23;;;;;;;3.83;2.30;;;15.80;99.90;;;16.65;92.00;97528.63;5178828;28;20240;-59
2021/07/05 05:41:56;;;;;;;5.00;2.05;;;15.80;99.90;;;16.74;92.38;97533.19;5177474;28;20260;-58
2021/07/05 05:44:31;;;;;;;3.08;2.20;;;15.90;99.90;;;16.86;91.22;97538.72;5181775;28;20674;-60
2021/07/05 05:47:04;;;;;;;2.55;1.83;;;16.00;99.90;;;16.87;90.64;97541.34;5180704;28;20198;-59
2021/07/05 05:49:38;;;;;;;3.85;2.55;;;16.00;99.90;;;16.92;90.31;97544.06;5182425;28;20234;-58
2021/07/05 05:52:11;;;;;;;2.30;2.00;;;16.00;99.90;;;17.04;90.83;97543.50;5182882;28;20237;-59
2021/07/05 05:54:45;;;;;;;2.20;2.00;;;16.20;99.90;;;17.16;90.26;97542.94;5177372;28;20209;-59
2021/07/05 05:57:26;;;;;;;3.17;2.65;;;16.20;99.90;;;17.24;88.43;97551.78;5176794;28;20628;-60
2021/07/05 06:00:02;;;;;;;2.88;2.53;;;16.20;99.90;;;17.24;88.84;97554.34;5178222;28;20202;-58
2021/07/05 06:02:36;;;;;;;2.60;2.50;;;16.30;99.90;;;17.35;88.79;97550.34;5175346;28;20222;-58
2021/07/05 06:05:10;;;;;;;3.28;2.15;;;16.30;99.90;;;17.46;88.77;97556.66;5177585;28;20205;-60
2021/07/05 06:07:47;;;;;;;2.50;2.30;;;16.50;99.90;;;17.55;87.73;97558.59;5179291;28;20198;-59
2021/07/05 06:10:23;;;;;;;2.38;2.17;;;16.60;99.90;;;17.71;88.27;97557.25;5180821;28;20667;-60
2021/07/05 06:12:57;;;;;;;2.40;2.20;;;16.70;99.90;;;17.85;87.23;97550.72;5178217;28;20232;-59
2021/07/05 06:15:31;;;;;;;3.70;2.20;;;16.80;99.90;;;17.95;86.83;97539.75;5186128;28;20217;-57
2021/07/05 06:18:05;;;;;;;4.43;2.50;;;16.90;99.90;;;18.02;86.45;97541.63;5175252;28;20233;-58
2021/07/05 06:20:38;;;;;;;2.40;2.30;;;17.00;99.90;;;18.13;86.44;97541.88;5180417;28;20199;-58
2021/07/05 06:23:21;;;;;;;2.08;1.98;;;17.00;99.90;;;18.19;86.45;97546.31;5181996;28;20242;-58
2021/07/05 06:25:56;;;;;;;2.35;2.10;;;17.10;99.90;;;18.29;85.81;97537.06;5182535;28;20194;-56
2021/07/05 06:28:32;;;;;;;2.65;2.17;;;17.10;99.90;;;18.24;86.21;97526.59;5184450;28;20206;-60
2021/07/05 06:31:07;;;;;;;3.17;2.65;;;17.10;99.90;;;18.24;85.13;97530.06;5176785;28;20248;-58
2021/07/05 06:33:40;;;;;;;2.88;2.20;;;17.10;99.90;;;18.25;86.16;97533.50;5183538;28;20206;-60
2021/07/05 06:36:14;;;;;;;2.47;2.28;;;17.20;99.90;;;18.31;86.44;97533.63;5183167;28;20202;-57
2021/07/05 06:38:48;;;;;;;2.55;2.10;;;17.30;99.90;;;18.40;85.56;97533.84;5190257;28;20206;-59
2021/07/05 06:41:21;;;;;;;2.70;2.50;;;17.30;99.90;;;18.42;85.79;97526.97;5177709;28;20206;-59
2021/07/05 06:43:54;;;;;;;2.88;2.50;;;17.30;99.90;;;18.42;85.87;97529.56;5180362;28;21006;-58
2021/07/05 06:46:28;;;;;;;2.60;2.40;;;17.30;99.90;;;18.47;85.79;97521.91;5183550;28;20679;-59
2021/07/05 06:49:02;;;;;;;2.63;2.40;;;17.30;99.90;;;18.53;85.01;97528.94;5177972;28;20551;-59
2021/07/05 06:51:35;;;;;;;2.40;2.30;;;17.30;99.90;;;18.51;85.70;97530.59;5179214;28;20226;-57
2021/07/05 06:54:08;;;;;;;3.15;2.60;;;17.40;99.90;;;18.45;85.62;97533.94;5176770;28;20631;-60
2021/07/05 06:56:41;;;;;;;2.45;2.30;;;17.40;99.90;;;18.46;85.63;97531.41;5178042;28;20612;-59
2021/07/05 06:59:14;;;;;;;2.85;2.65;;;17.40;99.90;;;18.56;85.73;97531.56;5176425;28;20225;-57
2021/07/05 07:01:49;;;;;;;2.80;2.30;;;17.50;99.90;;;18.68;84.27;97530.13;5178518;28;20229;-58
2021/07/05 07:04:22;;;;;;;2.80;2.40;;;17.40;99.90;;;18.64;84.68;97532.59;5179411;28;20602;-60
2021/07/05 07:06:55;;;;;;;4.82;2.38;;;17.50;99.90;;;18.72;84.37;97533.63;5176968;28;20195;-56
2021/07/05 07:09:28;;;;;;;2.72;2.53;;;17.50;99.90;;;18.76;84.69;97530.28;5173597;28;20337;-59
2021/07/05 07:12:01;;;;;;;4.50;2.60;;;17.60;99.90;;;18.87;84.07;97536.53;5176151;28;20223;-59
2021/07/05 07:14:34;;;;;;;3.20;2.60;;;17.60;99.90;;;19.01;83.55;97528.16;5177183;28;20214;-56
2021/07/05 07:17:14;;;;;;;3.85;2.50;;;17.80;99.90;;;19.17;83.43;97539.66;5177859;28;20230;-58
2021/07/05 07:19:47;;;;;;;2.67;2.47;;;18.00;99.90;;;19.44;82.89;97540.16;5176459;28;20198;-59
2021/07/05 07:22:20;;;;;;;2.90;2.10;;;18.20;99.90;;;19.74;81.15;97542.44;5181758;28;20225;-60
2021/07/05 07:24:53;;;;;;;2.83;2.63;;;18.40;99.90;;;19.88;80.98;97544.34;5182562;28;20674;-60
2021/07/05 07:27:27;;;;;;;2.47;2.20;;;18.60;99.90;;;20.04;81.21;97541.13;5179102;28;20194;-58
2021/07/05 07:30:00;;;;;;;3.20;3.00;;;18.80;99.90;;;20.11;81.45;97534.31;5177457;28;20225;-58
2021/07/05 07:32:34;;;;;;;3.10;2.75;;;18.90;99.90;;;20.20;80.86;97531.81;5178520;28;20264;-58
2021/07/05 07:35:09;;;;;;;2.80;2.53;;;19.00;99.90;;;20.21;80.67;97533.59;5179661;28;20206;-58
2021/07/05 07:37:44;;;;;;;3.25;2.95;;;19.00;99.90;;;20.19;80.86;97535.28;5180317;28;20686;-58
2021/07/05 07:40:20;;;;;;;3.05;2.85;;;19.00;99.90;;;20.11;81.81;97540.34;5178944;28;20224;-57
2021/07/05 07:42:53;;;;;;;2.70;2.50;;;19.00;99.90;;;20.10;82.81;97533.44;5179809;28;20232;-56
2021/07/05 07:45:27;;;;;;;2.95;2.63;;;19.10;99.90;;;20.06;82.91;97547.22;5179783;28;20733;-60
2021/07/05 07:48:02;;;;;;;4.15;2.20;;;19.10;99.90;;;20.17;80.61;97544.75;5183724;28;20226;-57
2021/07/05 07:50:36;;;;;;;2.95;2.20;;;19.10;99.90;;;20.14;80.64;97540.41;5181742;28;20230;-55
2021/07/05 07:53:09;;;;;;;2.53;2.10;;;19.00;99.90;;;20.06;80.53;97530.75;5178377;28;20222;-56
2021/07/05 07:55:42;;;;;;;2.10;1.90;;;19.00;99.90;;;20.05;81.38;97540.28;5181880;28;20221;-58
2021/07/05 07:58:15;;;;;;;2.78;2.00;;;19.10;99.90;;;20.00;82.54;97542.81;5184255;28;20219;-56
2021/07/05 08:00:48;;;;;;;2.50;2.40;;;19.10;99.90;;;20.05;82.32;97540.28;5183292;28;20246;-59
2021/07/05 08:03:23;;;;;;;2.85;2.65;;;19.20;99.90;;;20.29;81.31;97536.28;5185640;28;20234;-57
2021/07/05 08:05:56;;;;;;;2.20;2.03;;;19.20;99.90;;;20.22;80.56;97531.00;5177045;28;20208;-58
2021/07/05 08:08:30;;;;;;;2.50;2.38;;;19.20;99.90;;;20.23;80.87;97529.28;5184089;28;20202;-58
2021/07/05 08:11:03;;;;;;;2.75;2.55;;;19.20;99.90;;;20.16;81.13;97537.84;5180680;28;20213;-60
2021/07/05 08:13:36;;;;;;;2.45;2.35;;;19.20;99.90;;;20.12;80.90;97531.75;5181902;28;20248;-58
2021/07/05 08:16:09;;;;;;;3.50;2.30;;;19.20;99.90;;;20.12;81.54;97534.34;5181484;28;20214;-58
2021/07/05 08:18:44;;;;;;;2.75;2.10;;;19.20;99.90;;;20.24;81.48;97526.72;5183134;28;20231;-58
2021/07/05 08:21:18;;;;;;;2.45;2.35;;;19.30;99.90;;;20.30;81.89;97525.06;5184166;28;20194;-59
2021/07/05 08:23:52;;;;;;;2.40;2.20;;;19.40;99.90;;;20.32;80.69;97525.97;5183155;28;20205;-59
2021/07/05 08:26:25;;;;;;;3.55;2.45;;;19.40;99.90;;;20.30;80.72;97525.06;5179491;28;20198;-58
2021/07/05 08:28:58;;;;;;;2.10;2.00;;;19.40;99.90;;;20.35;80.73;97529.47;5184001;28;20203;-58
2021/07/05 08:31:32;;;;;;;2.40;2.25;;;19.40;99.90;;;20.44;80.66;97546.88;5185082;28;20313;-58
2021/07/05 08:34:07;;;;;;;3.45;2.08;;;19.50;99.90;;;20.56;79.41;97544.47;5174743;28;20202;-58
2021/07/05 08:36:40;;;;;;;2.30;1.98;;;19.50;99.90;;;20.60;78.38;97551.47;5185186;28;20206;-59
2021/07/05 08:39:14;;;;;;;2.28;2.17;;;19.50;99.90;;;20.69;79.08;97551.56;5180153;28;20717;-57
2021/07/05 08:41:47;;;;;;;4.00;2.35;;;19.60;99.90;;;20.73;79.20;97546.41;5179168;28;20246;-57
2021/07/05 08:44:20;;;;;;;2.95;2.20;;;19.70;99.90;;;20.74;79.50;97537.75;5180103;28;20205;-59
2021/07/05 08:46:56;;;;;;;2.25;2.00;;;19.70;99.90;;;20.85;77.76;97538.75;5179313;28;20597;-58
2021/07/05 08:49:30;;;;;;;2.20;2.10;;;19.60;99.90;;;20.89;78.40;97543.13;5179459;28;20700;-59
2021/07/05 08:52:04;;;;;;;2.60;2.38;;;19.70;99.90;;;20.92;77.06;97543.16;5182607;28;20661;-57
2021/07/05 08:54:37;;;;;;;2.20;2.03;;;19.70;99.90;;;20.91;76.37;97542.28;5182818;28;20693;-60
2021/07/05 08:57:26;;;;;;;2.28;2.05;;;19.70;99.90;;;20.87;77.34;97524.06;5181526;28;20205;-59
2021/07/05 08:59:59;;;;;;;1.80;1.70;;;19.80;99.90;;;20.87;77.55;97530.13;5183588;28;20199;-60
2021/07/05 09:02:33;;;;;;;2.25;2.05;;;19.90;99.90;;;21.03;77.12;97531.16;5181001;28;20634;-60
2021/07/05 09:05:09;;;;;;;2.60;2.20;;;19.90;99.90;;;21.08;75.61;97529.47;5183792;28;20242;-57
2021/07/05 09:08:01;;;;;;;2.45;2.25;;;20.00;99.90;;;21.13;75.80;97527.78;5182556;28;20618;-58
2021/07/05 09:10:45;;;;;;;1.88;1.80;;;20.00;99.90;;;21.13;72.93;97517.38;5180019;28;20741;-58
2021/07/05 09:13:21;;;;;;;1.92;1.83;;;19.90;99.90;;;21.18;74.71;97533.03;5179193;28;20225;-60
2021/07/05 09:15:56;;;;;;;2.22;2.05;;;20.00;99.90;;;21.17;75.68;97527.81;5176427;28;20316;-58
2021/07/05 09:18:43;;;;;;;2.00;1.90;;;20.00;99.90;;;21.23;73.62;97533.97;5173662;28;20214;-59
2021/07/05 09:21:21;;;;;;;2.75;2.00;;;20.00;99.90;;;21.25;74.54;97526.16;5180677;28;20207;-59
2021/07/05 09:23:59;;;;;;;5.72;2.35;;;20.10;99.90;;;21.36;73.94;97529.75;5180851;28;20980;-55
2021/07/05 09:26:36;;;;;;;2.20;2.10;;;20.20;99.90;;;21.54;71.90;97535.13;5169692;28;20586;-58
2021/07/05 09:29:22;;;;;;;2.33;2.22;;;20.20;99.90;;;21.55;72.43;97533.41;5174520;28;20233;-58
2021/07/05 09:31:58;;;;;;;2.30;2.20;;;20.30;99.90;;;21.64;71.44;97524.81;5176890;28;20223;-59
2021/07/05 09:34:36;;;;;;;2.85;2.00;;;20.40;99.90;;;21.66;70.31;97529.16;5178355;28;20301;-59
2021/07/05 09:37:20;;;;;;;2.10;1.98;;;20.30;99.90;;;21.59;72.38;97533.44;5176579;28;20232;-58
2021/07/05 09:40:12;;;;;;;2.30;2.10;;;20.40;99.90;;;21.61;72.61;97532.59;5178871;28;20305;-59
2021/07/05 09:42:47;;;;;;;2.63;2.42;;;20.40;99.90;;;21.68;71.85;97542.19;5176141;28;20226;-59
2021/07/05 09:45:32;;;;;;;2.28;2.15;;;20.30;99.90;;;21.60;72.46;97539.50;5180612;28;20714;-58
2021/07/05 09:48:13;;;;;;;2.38;2.15;;;20.20;99.90;;;21.55;72.62;97542.09;5177792;28;20217;-56
2021/07/05 09:50:50;;;;;;;3.25;2.40;;;20.40;99.90;;;21.47;72.36;97543.75;5174894;28;20198;-59
2021/07/05 09:53:33;;;;;;;2.10;2.00;;;20.20;99.90;;;21.30;74.45;97537.47;5174539;28;20214;-57
2021/07/05 09:56:22;;;;;;;2.13;1.88;;;20.10;99.90;;;21.17;76.03;97538.22;5173480;28;20210;-58
2021/07/05 09:58:59;;;;;;;2.35;2.15;;;20.00;99.90;;;21.13;76.44;97543.38;5174932;28;21308;-60
2021/07/05 10:01:38;;;;;;;1.73;1.60;;;19.90;99.90;;;20.96;74.99;97534.53;5175384;28;20226;-58
2021/07/05 10:04:14;;;;;;;2.15;2.03;;;19.90;99.90;;;20.77;74.24;97527.38;5174786;28;20682;-60
2021/07/05 10:06:48;;;;;;;2.00;1.90;;;19.60;99.90;;;20.57;75.66;97535.81;5173727;28;20224;-59
2021/07/05 10:09:37;;;;;;;1.98;1.88;;;19.40;99.90;;;20.29;77.35;97528.47;5175416;28;20229;-58
2021/07/05 10:12:23;;;;;;;2.83;1.98;;;19.30;99.90;;;20.25;78.17;97533.63;5174663;28;20303;-59
2021/07/05 10:15:03;;;;;;;1.83;1.73;;;19.30;99.90;;;20.29;77.67;97523.28;5176144;28;20980;-59
2021/07/05 10:17:40;;;;;;;1.90;1.73;;;19.20;99.90;;;20.27;77.59;97523.28;5180559;28;20719;-56
2021/07/05 10:20:16;;;;;;;2.00;1.90;;;19.30;99.90;;;20.27;78.25;97527.63;5179515;28;20773;-58
2021/07/05 10:22:52;;;;;;;2.00;1.90;;;19.40;99.90;;;20.38;78.86;97531.22;5172009;28;20210;-58
2021/07/05 10:25:30;;;;;;;2.17;2.08;;;19.50;99.90;;;20.64;76.93;97532.44;5174874;28;20202;-60
2021/07/05 10:28:04;;;;;;;2.13;1.98;;;19.60;99.90;;;20.81;76.48;97524.00;5181619;28;20285;-56
2021/07/05 10:30:38;;;;;;;2.00;1.90;;;19.80;99.90;;;20.92;76.49;97527.56;5173109;28;20202;-58
2021/07/05 10:33:11;;;;;;;2.20;2.00;;;20.00;99.90;;;20.90;76.36;97530.16;5177430;28;20252;-60
2021/07/05 10:35:47;;;;;;;1.90;1.80;;;20.10;99.90;;;20.95;76.85;97527.59;5175051;28;20280;-59
2021/07/05 10:38:23;;;;;;;2.05;1.73;;;20.10;99.90;;;20.96;76.72;97528.47;5179469;28;20588;-60
2021/07/05 10:41:08;;;;;;;1.80;1.70;;;20.10;99.90;;;21.18;76.28;97529.56;5176901;28;20209;-60
2021/07/05 10:43:52;;;;;;;1.80;1.70;;;20.10;99.90;;;21.22;75.53;97521.81;5183347;28;20668;-57
2021/07/05 10:46:48;;;;;;;1.80;1.70;;;20.10;99.90;;;20.97;74.02;97519.81;5177401;28;20239;-60
2021/07/05 10:49:47;;;;;;;1.90;1.80;;;20.00;99.90;;;20.66;76.13;97525.56;5181920;28;20658;-60
2021/07/05 10:52:20;;;;;;;1.70;1.60;;;19.80;99.90;;;20.30;76.55;97522.47;5178652;28;20221;-58